Flight Track Log - Related Links

Times and Time Zones

All times are in EDT time to prevent confusion due to time zone crossing. See the CMF5HF flight status page for this flight to view local times or setup timezone preferences in your user account.

Time Position Orientation Groundspeed Altitude Reporting Facility
EDT Latitude Longitude Course Direction KTS MPH feet Rate Location/Type
Fri 01:04:04 PM 40.0833 -75.0167 360° North 102 117 500  Level Philadelphia TRACON
Fri 01:04:16 PM 40.0833 -75.0167 270° West 104 120 700 1,583 Climbing Philadelphia TRACON
Fri 01:05:16 PM 40.0833 -75.0667 270° West 145 167 2,400 1,488 Climbing Philadelphia TRACON
Fri 01:06:17 PM 40.0667 -75.1167 246° West 155 178 3,700 1,240 Climbing Philadelphia TRACON
Fri 01:07:17 PM 40.0500 -75.1667 246° West 159 183 4,900 684 Climbing Philadelphia TRACON
Fri 01:08:11 PM 40.0333 -75.2333 252° West 199 229 5,000 800 Climbing Philadelphia TRACON
Fri 01:09:17 PM 40.0000 -75.3000 237° Southwest 188 216 6,500 1,381 Climbing Philadelphia TRACON
Fri 01:10:17 PM 39.9833 -75.3500 247° West 166 191 7,900 1,250 Climbing Philadelphia TRACON
Fri 01:11:17 PM 39.9667 -75.4167 252° West 178 205 9,000 641 Climbing Philadelphia TRACON
Fri 01:12:00 PM 39.9497 -75.4528 239° Southwest 209 241 9,000 400 Level New York Center
Fri 01:13:02 PM 39.9256 -75.5322 248° West 209 241 9,700 1,033 Climbing New York Center
Fri 01:14:02 PM 39.9067 -75.5878 246° West 202 232 11,100 1,150 Climbing New York Center
Fri 01:15:02 PM 39.8853 -75.6539 247° West 188 216 12,000 555 Climbing New York Center
Fri 01:16:01 PM 39.8783 -75.7211 262° West 207 238 12,200 850 Climbing New York Center
Fri 01:17:02 PM 39.8728 -75.8019 265° West 216 249 13,700 1,400 Climbing New York Center
Fri 01:18:01 PM 39.8661 -75.8583 261° West 191 220 15,000 1,462 Climbing New York Center
Fri 01:19:01 PM 39.8494 -75.9111 248° West 158 182 16,600 992 Climbing New York Center
Fri 01:20:02 PM 39.8322 -75.9667 248° West 158 182 17,000 202 Climbing New York Center
Fri 01:21:00 PM 39.8106 -76.0325 247° West 182 209 17,000 458 Level New York Center
Fri 01:22:00 PM 39.7889 -76.0958 246° West 206 237 17,900 893 Climbing New York Center
Fri 01:23:01 PM 39.7672 -76.1617 247° West 211 243 18,800 934 Climbing New York Center
Fri 01:24:02 PM 39.7450 -76.2383 249° West 206 237 19,800 595 Climbing New York Center
Fri 01:25:02 PM 39.7211 -76.2986 243° Southwest 201 231 20,000 101 Climbing New York Center
Fri 01:26:01 PM 39.6989 -76.3725 249° West 207 238 20,000  Level New York Center
Fri 01:27:00 PM 39.6767 -76.4461 249° West 219 252 20,000  Level New York Center
Fri 01:28:01 PM 39.6500 -76.5250 246° West 229 264 20,000  Level New York Center
Fri 01:29:00 PM 39.6233 -76.6008 245° Southwest 234 269 20,000  Level New York Center
Fri 01:30:02 PM 39.5986 -76.6797 248° West 234 269 20,000  Level New York Center
Fri 01:31:01 PM 39.5694 -76.7608 245° Southwest 239 275 20,000  Level New York Center
Fri 01:31:55 PM 39.5469 -76.8214 244° Southwest 240 276 20,000  Level Washington Center
Fri 01:32:56 PM 39.5192 -76.8989 245° Southwest 245 282 20,000  Level Washington Center
Fri 01:33:56 PM 39.4931 -76.9792 247° West 245 282 20,000  Level Washington Center
Fri 01:34:54 PM 39.4425 -77.0347 220° Southwest 240 276 20,000  Level Washington Center
Fri 01:35:54 PM 39.3919 -77.0872 219° Southwest 240 276 20,000  Level Washington Center
Fri 01:36:55 PM 39.3411 -77.1453 221° Southwest 245 282 20,000  Level Washington Center
Fri 01:37:55 PM 39.2883 -77.1978 218° Southwest 245 282 20,000  Level Washington Center
Fri 01:38:56 PM 39.2375 -77.2503 219° Southwest 245 282 20,000  Level Washington Center
Fri 01:39:56 PM 39.1867 -77.3028 219° Southwest 245 282 20,000  Level Washington Center
Fri 01:40:54 PM 39.1339 -77.3578 219° Southwest 245 282 20,000  Level Washington Center
Fri 01:41:55 PM 39.0831 -77.4100 219° Southwest 245 282 20,000  Level Washington Center
Fri 01:42:56 PM 39.0281 -77.4672 219° Southwest 239 275 20,000  Level Washington Center
Fri 01:43:54 PM 38.9772 -77.5194 219° Southwest 239 275 20,000  Level Washington Center
Fri 01:44:54 PM 38.9283 -77.5717 220° Southwest 239 275 20,000  Level Washington Center
Fri 01:45:55 PM 38.8797 -77.6183 217° Southwest 239 275 20,000  Level Washington Center
Fri 01:46:56 PM 38.8222 -77.6781 219° Southwest 244 281 20,000  Level Washington Center
Fri 01:47:54 PM 38.7692 -77.7325 219° Southwest 244 281 20,000  Level Washington Center
Fri 01:48:55 PM 38.7289 -77.7764 220° Southwest 244 281 20,000  Level Washington Center
Fri 01:49:56 PM 38.6758 -77.8333 220° Southwest 244 281 20,000  Level Washington Center
Fri 01:50:54 PM 38.6289 -77.8853 221° Southwest 239 275 20,000  Level Washington Center
Fri 01:51:54 PM 38.5900 -77.9531 234° Southwest 234 269 20,000  Level Washington Center
Fri 01:52:53 PM 38.5511 -78.0181 233° Southwest 234 269 20,000  Level Washington Center
Fri 01:53:54 PM 38.5144 -78.0833 234° Southwest 234 269 20,000  Level Washington Center
Fri 01:54:55 PM 38.4756 -78.1483 233° Southwest 234 269 20,000  Level Washington Center
Fri 01:55:56 PM 38.4364 -78.2158 233° Southwest 240 276 20,000  Level Washington Center
Fri 01:56:54 PM 38.3997 -78.2808 234° Southwest 240 276 20,000  Level Washington Center
Fri 01:57:54 PM 38.3586 -78.3456 231° Southwest 240 276 20,000  Level Washington Center
Fri 01:58:56 PM 38.3217 -78.4103 234° Southwest 240 276 20,000  Level Washington Center
Fri 01:59:56 PM 38.2825 -78.4775 233° Southwest 240 276 20,000  Level Washington Center
Fri 02:00:54 PM 38.2456 -78.5394 233° Southwest 240 276 20,000  Level Washington Center
Fri 02:01:54 PM 38.2019 -78.6144 234° Southwest 240 276 20,000  Level Washington Center
Fri 02:02:55 PM 38.1628 -78.6789 232° Southwest 240 276 20,000  Level Washington Center
Fri 02:03:56 PM 38.1236 -78.7408 231° Southwest 240 276 20,000  Level Washington Center
Fri 02:04:54 PM 38.0822 -78.8075 232° Southwest 245 282 20,000  Level Washington Center
Fri 02:05:55 PM 38.0472 -78.8642 232° Southwest 240 276 20,000  Level Washington Center
Fri 02:06:56 PM 38.0081 -78.9283 232° Southwest 240 276 20,000  Level Washington Center
Fri 02:07:53 PM 37.9642 -79.0028 233° Southwest 245 282 20,000  Level Washington Center
Fri 02:08:54 PM 37.9269 -79.0617 231° Southwest 244 281 20,000  Level Washington Center
Fri 02:09:55 PM 37.8936 -79.1364 241° Southwest 244 281 20,000  Level Washington Center
Fri 02:10:56 PM 37.8683 -79.2142 248° West 239 275 20,000  Level Washington Center
Fri 02:11:54 PM 37.8517 -79.2817 253° West 229 264 20,000  Level Washington Center
Fri 02:12:55 PM 37.8261 -79.3644 249° West 229 264 20,000  Level Washington Center
Fri 02:13:56 PM 37.8053 -79.4319 249° West 229 264 20,000  Level Washington Center
Fri 02:14:41 PM 37.7764 -79.4881 237° Southwest 229 264 20,000  Level Washington Center
Fri 02:14:54 PM 37.7756 -79.5092 267° West 229 264 20,000 -1,068 Level Washington Center
Fri 02:15:54 PM 37.7336 -79.5806 233° Southwest 251 289 18,700 -1,289 Descending Washington Center
Fri 02:16:55 PM 37.6897 -79.6489 231° Southwest 265 305 17,400 -1,230 Descending Washington Center
Fri 02:17:56 PM 37.6500 -79.7100 231° Southwest 265 305 16,200 -1,290 Descending Washington Center
Fri 02:18:42 PM 37.6108 -79.7603 225° Southwest 238 274 15,100 -1,448 Descending Washington Center
Fri 02:18:54 PM 37.6058 -79.7808 253° West 254 292 14,800 -1,315 Descending Washington Center
Fri 02:19:55 PM 37.5617 -79.8492 231° Southwest 247 284 13,500 -1,230 Descending Washington Center
Fri 02:20:56 PM 37.5217 -79.9150 233° Southwest 247 284 12,300 -1,210 Descending Washington Center
Fri 02:21:54 PM 37.4822 -79.9731 229° Southwest 247 284 11,100 -1,302 Descending Washington Center
Fri 02:22:42 PM 37.4486 -80.0311 234° Southwest 240 276 10,000 -1,279 Descending Washington Center
Fri 02:22:55 PM 37.4422 -80.0386 223° Southwest 247 284 9,800 -923 Descending Washington Center
Fri 02:24:00 PM 37.3763 -80.0468 186° South  Level FlightAware Approximate
Fri 02:31:00 PM 37.2000 -80.4000 247° West  Level FlightAware Approximate
Fri 02:32:00 PM 37.2076 -80.4078 247° West  Level Estimated
Fri 02:33:00 PM 37.2076 -80.4078 247° West  Level Estimated
Fri 02:34:00 PM 37.2076 -80.4078 247° West  Level Estimated

Login

Don't have an account? Register now (free) for customized features, flight alerts, and more!